sensor_id;sensor_type;location;lat;lon;timestamp;pressure;altitude;pressure_sealevel;temperature;humidity
46506;BME280;32220;49.808;9.968;2023-01-31T09:43:32;99720.50;;;4.00;100.00
46506;BME280;32220;49.808;9.968;2023-01-31T09:46:05;99713.16;;;4.53;98.96
46506;BME280;32220;49.808;9.968;2023-01-31T09:48:34;99709.41;;;4.97;90.33
46506;BME280;32220;49.808;9.968;2023-01-31T09:51:04;99705.53;;;5.43;86.24
46506;BME280;32220;49.808;9.968;2023-01-31T09:53:34;99732.34;;;5.85;83.64
46506;BME280;32220;49.808;9.968;2023-01-31T09:56:13;99728.25;;;6.05;81.65
46506;BME280;32220;49.808;9.968;2023-01-31T09:58:53;99750.97;;;6.36;78.42
46506;BME280;32220;49.808;9.968;2023-01-31T10:01:24;99754.78;;;6.55;77.03
46506;BME280;32220;49.808;9.968;2023-01-31T10:04:13;99756.78;;;6.73;76.10
46506;BME280;32220;49.808;9.968;2023-01-31T10:06:50;99755.88;;;6.74;74.60
46506;BME280;32220;49.808;9.968;2023-01-31T10:09:26;99757.56;;;7.03;74.84
46506;BME280;32220;49.808;9.968;2023-01-31T10:11:58;99760.31;;;7.75;72.03
46506;BME280;32220;49.808;9.968;2023-01-31T10:14:32;99767.59;;;8.15;68.59
46506;BME280;32220;49.808;9.968;2023-01-31T10:17:08;99768.16;;;8.23;67.05
46506;BME280;32220;49.808;9.968;2023-01-31T10:19:44;99747.72;;;8.05;66.42
46506;BME280;32220;49.808;9.968;2023-01-31T10:22:18;99755.03;;;7.98;66.35
46506;BME280;32220;49.808;9.968;2023-01-31T10:24:51;99763.28;;;8.12;65.76
46506;BME280;32220;49.808;9.968;2023-01-31T10:27:36;99754.66;;;8.07;65.66
46506;BME280;32220;49.808;9.968;2023-01-31T10:30:13;99761.03;;;8.70;63.98
46506;BME280;32220;49.808;9.968;2023-01-31T10:32:44;99739.72;;;8.75;63.82
46506;BME280;32220;49.808;9.968;2023-01-31T10:35:17;99718.59;;;8.75;62.90
46506;BME280;32220;49.808;9.968;2023-01-31T10:37:48;99746.97;;;9.12;61.85
46506;BME280;32220;49.808;9.968;2023-01-31T10:40:21;99748.13;;;9.26;62.30
46506;BME280;32220;49.808;9.968;2023-01-31T10:42:53;99747.09;;;9.29;60.94
46506;BME280;32220;49.808;9.968;2023-01-31T10:45:27;99733.81;;;9.30;61.00
46506;BME280;32220;49.808;9.968;2023-01-31T10:48:03;99727.81;;;9.27;60.88
46506;BME280;32220;49.808;9.968;2023-01-31T10:50:39;99721.94;;;9.20;61.67
46506;BME280;32220;49.808;9.968;2023-01-31T10:53:22;99716.38;;;8.86;61.79
46506;BME280;32220;49.808;9.968;2023-01-31T10:56:02;99712.28;;;8.57;62.11
46506;BME280;32220;49.808;9.968;2023-01-31T10:58:31;99701.78;;;8.34;62.97
46506;BME280;32220;49.808;9.968;2023-01-31T11:01:02;99693.34;;;8.02;63.36
46506;BME280;32220;49.808;9.968;2023-01-31T11:03:33;99688.69;;;7.85;64.48
46506;BME280;32220;49.808;9.968;2023-01-31T11:06:02;99697.47;;;7.86;65.12
46506;BME280;32220;49.808;9.968;2023-01-31T11:08:34;99700.25;;;7.81;64.74
46506;BME280;32220;49.808;9.968;2023-01-31T11:11:08;99675.28;;;7.68;65.42
46506;BME280;32220;49.808;9.968;2023-01-31T11:13:37;99667.06;;;7.54;65.47
46506;BME280;32220;49.808;9.968;2023-01-31T11:16:09;99669.84;;;7.49;65.55
46506;BME280;32220;49.808;9.968;2023-01-31T11:18:43;99642.44;;;7.30;65.83
46506;BME280;32220;49.808;9.968;2023-01-31T11:21:19;99630.06;;;7.32;66.50
46506;BME280;32220;49.808;9.968;2023-01-31T11:23:49;99622.97;;;7.34;66.83
46506;BME280;32220;49.808;9.968;2023-01-31T11:26:25;99605.22;;;7.39;67.06
46506;BME280;32220;49.808;9.968;2023-01-31T11:28:53;99618.50;;;7.60;66.18
46506;BME280;32220;49.808;9.968;2023-01-31T11:31:28;99613.13;;;7.84;66.38
46506;BME280;32220;49.808;9.968;2023-01-31T11:33:59;99629.38;;;8.17;65.75
46506;BME280;32220;49.808;9.968;2023-01-31T11:36:31;99637.19;;;8.42;64.83
46506;BME280;32220;49.808;9.968;2023-01-31T11:38:59;99617.56;;;8.27;63.64
46506;BME280;32220;49.808;9.968;2023-01-31T11:41:47;99620.44;;;8.21;63.77
46506;BME280;32220;49.808;9.968;2023-01-31T11:44:16;99620.50;;;7.98;63.86
46506;BME280;32220;49.808;9.968;2023-01-31T11:46:50;99624.81;;;8.01;64.42
46506;BME280;32220;49.808;9.968;2023-01-31T11:49:26;99624.53;;;7.85;64.62
46506;BME280;32220;49.808;9.968;2023-01-31T11:51:56;99610.19;;;7.70;64.92
46506;BME280;32220;49.808;9.968;2023-01-31T11:54:28;99601.78;;;7.61;65.47
46506;BME280;32220;49.808;9.968;2023-01-31T11:56:58;99617.09;;;7.51;65.83
46506;BME280;32220;49.808;9.968;2023-01-31T11:59:28;99594.34;;;7.25;66.29
46506;BME280;32220;49.808;9.968;2023-01-31T12:01:59;99594.50;;;7.20;66.55
46506;BME280;32220;49.808;9.968;2023-01-31T12:04:31;99596.56;;;7.12;66.91
46506;BME280;32220;49.808;9.968;2023-01-31T12:07:02;99607.72;;;7.19;67.37
46506;BME280;32220;49.808;9.968;2023-01-31T12:09:40;99613.00;;;7.19;67.29
46506;BME280;32220;49.808;9.968;2023-01-31T12:12:22;99607.09;;;7.12;67.48
46506;BME280;32220;49.808;9.968;2023-01-31T12:14:54;99596.78;;;7.06;67.91
46506;BME280;32220;49.808;9.968;2023-01-31T12:17:24;99604.88;;;7.02;68.14
46506;BME280;32220;49.808;9.968;2023-01-31T12:20:06;99587.44;;;6.98;68.32
46506;BME280;32220;49.808;9.968;2023-01-31T12:22:42;99607.59;;;6.99;68.60
46506;BME280;32220;49.808;9.968;2023-01-31T12:25:20;99594.53;;;6.96;68.48
46506;BME280;32220;49.808;9.968;2023-01-31T12:28:04;99582.63;;;6.85;68.67
46506;BME280;32220;49.808;9.968;2023-01-31T12:31:00;99553.28;;;6.71;68.65
46506;BME280;32220;49.808;9.968;2023-01-31T12:33:47;99570.59;;;6.78;68.98
46506;BME280;32220;49.808;9.968;2023-01-31T12:36:27;99581.91;;;6.80;68.91
46506;BME280;32220;49.808;9.968;2023-01-31T12:39:14;99586.28;;;6.81;69.39
46506;BME280;32220;49.808;9.968;2023-01-31T12:41:51;99585.50;;;6.79;69.63
46506;BME280;32220;49.808;9.968;2023-01-31T12:44:34;99570.19;;;6.66;69.47
46506;BME280;32220;49.808;9.968;2023-01-31T12:47:17;99578.50;;;6.78;69.36
46506;BME280;32220;49.808;9.968;2023-01-31T12:52:55;99541.72;;;6.52;69.33
46506;BME280;32220;49.808;9.968;2023-01-31T12:55:34;99539.56;;;6.63;69.82
46506;BME280;32220;49.808;9.968;2023-01-31T12:58:18;99534.81;;;6.73;69.39
46506;BME280;32220;49.808;9.968;2023-01-31T13:00:56;99521.72;;;6.71;69.50
46506;BME280;32220;49.808;9.968;2023-01-31T13:03:37;99473.19;;;6.55;69.60
46506;BME280;32220;49.808;9.968;2023-01-31T13:06:10;99504.59;;;6.83;69.25
46506;BME280;32220;49.808;9.968;2023-01-31T13:08:45;99498.31;;;6.87;69.33
46506;BME280;32220;49.808;9.968;2023-01-31T13:11:19;99496.44;;;6.91;69.41
46506;BME280;32220;49.808;9.968;2023-01-31T13:13:50;99492.91;;;6.92;69.23
46506;BME280;32220;49.808;9.968;2023-01-31T13:16:20;99499.75;;;6.96;68.72
46506;BME280;32220;49.808;9.968;2023-01-31T13:18:50;99490.94;;;6.97;69.04
46506;BME280;32220;49.808;9.968;2023-01-31T13:21:22;99472.44;;;6.98;69.05
46506;BME280;32220;49.808;9.968;2023-01-31T13:23:57;99443.78;;;6.91;68.80
46506;BME280;32220;49.808;9.968;2023-01-31T13:26:30;99474.06;;;7.02;68.81
46506;BME280;32220;49.808;9.968;2023-01-31T13:29:02;99465.25;;;7.03;68.63
46506;BME280;32220;49.808;9.968;2023-01-31T13:31:35;99438.63;;;6.88;68.76
46506;BME280;32220;49.808;9.968;2023-01-31T13:34:10;99445.56;;;6.90;68.84
46506;BME280;32220;49.808;9.968;2023-01-31T13:36:42;99475.03;;;7.00;69.00
46506;BME280;32220;49.808;9.968;2023-01-31T13:39:18;99453.97;;;7.00;69.13
46506;BME280;32220;49.808;9.968;2023-01-31T13:41:46;99466.09;;;7.04;69.17
46506;BME280;32220;49.808;9.968;2023-01-31T13:44:14;99446.09;;;6.98;68.70
46506;BME280;32220;49.808;9.968;2023-01-31T13:46:48;99460.84;;;7.04;68.74
46506;BME280;32220;49.808;9.968;2023-01-31T13:49:23;99438.25;;;6.97;68.84
46506;BME280;32220;49.808;9.968;2023-01-31T13:51:54;99446.72;;;7.05;68.83
46506;BME280;32220;49.808;9.968;2023-01-31T13:54:30;99434.34;;;7.07;69.14
46506;BME280;32220;49.808;9.968;2023-01-31T13:57:00;99426.88;;;6.96;68.94
46506;BME280;32220;49.808;9.968;2023-01-31T13:59:31;99431.06;;;7.02;68.95
46506;BME280;32220;49.808;9.968;2023-01-31T14:02:01;99408.97;;;6.82;69.25
46506;BME280;32220;49.808;9.968;2023-01-31T14:04:32;99411.28;;;6.92;69.34
46506;BME280;32220;49.808;9.968;2023-01-31T14:07:20;99412.03;;;6.94;69.30
46506;BME280;32220;49.808;9.968;2023-01-31T14:10:25;99433.25;;;6.91;69.42
46506;BME280;32220;49.808;9.968;2023-01-31T14:13:22;99423.69;;;6.88;69.51
46506;BME280;32220;49.808;9.968;2023-01-31T14:15:53;99407.72;;;6.69;69.68
46506;BME280;32220;49.808;9.968;2023-01-31T14:18:38;99445.50;;;6.92;69.73
46506;BME280;32220;49.808;9.968;2023-01-31T14:28:00;99415.75;;;6.90;70.03
46506;BME280;32220;49.808;9.968;2023-01-31T14:30:38;99419.19;;;6.92;69.39
46506;BME280;32220;49.808;9.968;2023-01-31T14:33:18;99416.66;;;6.89;69.64
46506;BME280;32220;49.808;9.968;2023-01-31T14:36:16;99418.47;;;6.87;69.92
46506;BME280;32220;49.808;9.968;2023-01-31T14:45:21;99378.31;;;6.58;70.38
46506;BME280;32220;49.808;9.968;2023-01-31T14:51:10;99399.38;;;6.58;71.03
46506;BME280;32220;49.808;9.968;2023-01-31T14:56:50;99421.78;;;6.68;71.27
46506;BME280;32220;49.808;9.968;2023-01-31T14:59:27;99412.13;;;6.69;71.40
46506;BME280;32220;49.808;9.968;2023-01-31T15:01:57;99393.19;;;6.59;71.90
46506;BME280;32220;49.808;9.968;2023-01-31T15:04:27;99384.97;;;6.45;72.43
46506;BME280;32220;49.808;9.968;2023-01-31T15:06:56;99363.34;;;6.37;72.37
46506;BME280;32220;49.808;9.968;2023-01-31T15:09:33;99403.69;;;6.61;72.50
